Time;durP1;ratioP1;P1;durP2;ratioP2;P2;SDS_P1;SDS_P2;PMS_P1;PMS_P2;Temp;Humidity;BMP_temperature;BMP_pressure;BME280_temperature;BME280_humidity;BME280_pressure;Samples;Min_cycle;Max_cycle;Signal;HPM_P1;HPM_P2
2022/10/26 00:01:05;;;;;;;15.60;10.70;;;;;;;8.54;99.37;100971.66;101789;1306;61288;-79
2022/10/26 00:03:34;;;;;;;15.70;10.80;;;;;;;8.52;99.30;100968.02;101945;1301;72679;-79
2022/10/26 00:06:09;;;;;;;14.50;10.30;;;;;;;8.50;99.49;100966.41;101818;1300;70901;-79
2022/10/26 00:08:36;;;;;;;18.30;10.70;;;;;;;8.48;99.51;100967.11;101893;1307;71715;-78
2022/10/26 00:11:03;;;;;;;16.30;11.10;;;;;;;8.46;99.57;100964.00;101744;1308;61890;-79
2022/10/26 00:13:30;;;;;;;18.30;10.40;;;;;;;8.45;99.86;100962.93;101793;1307;61316;-78
2022/10/26 00:15:56;;;;;;;17.70;10.30;;;;;;;8.43;99.90;100962.75;101827;1306;74595;-77
2022/10/26 00:18:23;;;;;;;16.80;10.90;;;;;;;8.41;100.00;100965.02;101910;1309;61315;-77
2022/10/26 00:20:50;;;;;;;17.90;10.60;;;;;;;8.40;99.95;100963.71;101685;1300;72479;-79
2022/10/26 00:23:16;;;;;;;18.60;10.70;;;;;;;8.39;99.92;100968.58;101703;1309;61218;-78
2022/10/26 00:25:44;;;;;;;16.60;10.60;;;;;;;8.37;99.89;100966.63;101846;1304;61428;-78
2022/10/26 00:28:10;;;;;;;18.20;11.00;;;;;;;8.36;99.94;100966.18;101792;1308;73415;-78
2022/10/26 00:30:39;;;;;;;18.90;11.40;;;;;;;8.35;100.00;100967.70;101792;1306;61267;-77
2022/10/26 00:33:11;;;;;;;16.30;10.70;;;;;;;8.33;99.98;100969.81;101879;1298;71597;-79
2022/10/26 00:35:38;;;;;;;20.10;10.50;;;;;;;8.32;100.00;100972.39;101825;1304;61939;-79
2022/10/26 00:38:12;;;;;;;16.50;10.40;;;;;;;8.31;100.00;100969.94;101870;1306;61307;-79
2022/10/26 00:40:38;;;;;;;16.40;10.60;;;;;;;8.31;100.00;100972.38;101509;1310;74437;-77
2022/10/26 00:43:27;;;;;;;19.20;10.90;;;;;;;8.31;100.00;100976.10;101775;1305;61641;-79
2022/10/26 00:45:57;;;;;;;18.70;10.30;;;;;;;8.31;100.00;100977.17;101617;1304;72485;-78
2022/10/26 00:48:27;;;;;;;19.60;10.50;;;;;;;8.31;100.00;100978.40;101764;1304;62963;-77
2022/10/26 00:50:57;;;;;;;15.70;9.60;;;;;;;8.31;100.00;100974.49;101887;1307;61243;-79
2022/10/26 00:53:24;;;;;;;18.80;9.80;;;;;;;8.32;100.00;100971.52;101839;1307;74380;-76
2022/10/26 00:55:52;;;;;;;17.00;10.30;;;;;;;8.34;100.00;100971.17;101794;1307;68929;-76
2022/10/26 00:58:20;;;;;;;20.50;10.40;;;;;;;8.35;100.00;100966.35;101841;1305;72463;-76
2022/10/26 01:00:47;;;;;;;17.60;10.60;;;;;;;8.34;100.00;100966.39;101803;1301;61771;-79
2022/10/26 01:03:14;;;;;;;18.20;11.00;;;;;;;8.32;100.00;100963.77;101840;1307;61337;-76
2022/10/26 01:05:44;;;;;;;17.90;11.20;;;;;;;8.31;100.00;100962.51;101776;1305;73793;-76
2022/10/26 01:08:13;;;;;;;19.10;10.10;;;;;;;8.29;100.00;100962.33;101776;1307;68856;-76
2022/10/26 01:10:41;;;;;;;17.30;10.10;;;;;;;8.26;100.00;100962.66;101895;1303;72692;-76
2022/10/26 01:13:09;;;;;;;13.50;8.60;;;;;;;8.24;100.00;100959.86;101763;1296;61456;-76
2022/10/26 01:15:56;;;;;;;16.80;8.90;;;;;;;8.21;100.00;100958.03;101759;1306;61259;-79
2022/10/26 01:18:31;;;;;;;14.90;8.80;;;;;;;8.20;100.00;100957.23;102098;1308;72904;-78
2022/10/26 01:21:27;;;;;;;18.00;9.30;;;;;;;8.20;100.00;100959.06;102352;1306;70183;-77
2022/10/26 01:24:07;;;;;;;13.60;9.00;;;;;;;8.18;100.00;100954.66;102183;1307;71172;-78
2022/10/26 01:26:58;;;;;;;19.30;9.30;;;;;;;8.15;100.00;100954.85;102608;1299;61227;-79
2022/10/26 01:29:54;;;;;;;17.50;9.40;;;;;;;8.15;100.00;100953.81;102364;1305;61371;-78
2022/10/26 01:32:42;;;;;;;18.50;9.30;;;;;;;8.14;100.00;100951.11;101844;1304;72448;-80
2022/10/26 01:35:14;;;;;;;17.20;9.40;;;;;;;8.15;100.00;100949.83;101837;1306;71051;-76
2022/10/26 01:37:46;;;;;;;16.50;9.60;;;;;;;8.15;100.00;100945.55;101707;1306;72459;-76
2022/10/26 01:40:13;;;;;;;22.50;9.40;;;;;;;8.14;100.00;100941.06;101833;1307;61354;-76
2022/10/26 01:42:43;;;;;;;17.60;9.30;;;;;;;8.14;100.00;100941.92;101741;1304;61431;-76
2022/10/26 01:45:13;;;;;;;16.80;9.40;;;;;;;8.14;100.00;100940.70;101756;1307;74475;-76
2022/10/26 01:47:40;;;;;;;19.70;9.10;;;;;;;8.13;100.00;100941.48;101554;1306;71148;-76
2022/10/26 01:50:09;;;;;;;18.60;9.40;;;;;;;8.13;100.00;100941.21;101841;1306;72531;-77
2022/10/26 01:52:36;;;;;;;17.20;8.80;;;;;;;8.10;100.00;100942.52;101855;1300;61395;-77
2022/10/26 01:55:38;;;;;;;16.30;9.00;;;;;;;8.09;100.00;100946.03;101863;1306;61342;-76
2022/10/26 01:58:30;;;;;;;21.10;8.80;;;;;;;8.08;100.00;100945.71;101834;1296;74603;-76
2022/10/26 02:01:32;;;;;;;20.20;9.00;;;;;;;8.08;100.00;100944.91;101746;1305;69951;-76
2022/10/26 02:04:09;;;;;;;17.30;8.60;;;;;;;8.08;100.00;100938.50;101848;1302;72034;-76
2022/10/26 02:06:48;;;;;;;19.40;9.10;;;;;;;8.10;100.00;100934.29;101781;1300;61892;-75
2022/10/26 02:09:40;;;;;;;18.30;8.80;;;;;;;8.09;100.00;100933.95;101750;1306;61399;-76
2022/10/26 02:12:20;;;;;;;18.20;8.70;;;;;;;8.09;100.00;100928.00;101803;1305;74564;-78
2022/10/26 02:14:49;;;;;;;19.60;8.90;;;;;;;8.10;100.00;100925.48;101832;1298;71618;-77
2022/10/26 02:17:26;;;;;;;16.30;8.40;;;;;;;8.12;100.00;100927.60;101720;1305;72935;-75
2022/10/26 02:20:04;;;;;;;16.50;7.60;;;;;;;8.12;100.00;100922.39;101766;1307;62493;-76
2022/10/26 02:22:33;;;;;;;12.60;7.50;;;;;;;8.13;100.00;100923.36;101779;1307;61453;-75
2022/10/26 02:25:06;;;;;;;12.90;7.10;;;;;;;8.14;100.00;100919.94;101755;1305;74754;-76
2022/10/26 02:27:39;;;;;;;14.20;6.80;;;;;;;8.15;100.00;100918.77;101969;1307;69985;-76
2022/10/26 02:30:07;;;;;;;10.60;6.50;;;;;;;8.17;100.00;100916.11;101731;1300;72726;-76
2022/10/26 02:32:39;;;;;;;14.40;6.80;;;;;;;8.21;100.00;100915.64;101887;1301;62737;-76
2022/10/26 02:35:06;;;;;;;14.80;6.90;;;;;;;8.24;100.00;100909.88;101688;1303;61313;-76
2022/10/26 02:37:35;;;;;;;18.30;6.50;;;;;;;8.28;100.00;100906.82;101703;1305;74516;-78
2022/10/26 02:40:08;;;;;;;12.50;6.90;;;;;;;8.32;100.00;100905.84;101938;1307;69630;-77
2022/10/26 02:42:36;;;;;;;14.50;6.80;;;;;;;8.36;100.00;100900.87;101806;1305;72536;-76
2022/10/26 02:45:08;;;;;;;14.40;7.00;;;;;;;8.39;100.00;100898.81;101828;1307;62384;-77
2022/10/26 02:47:35;;;;;;;17.60;7.00;;;;;;;8.42;100.00;100896.27;101824;1301;61304;-76
2022/10/26 02:50:02;;;;;;;16.90;7.40;;;;;;;8.43;100.00;100896.96;101730;1307;61366;-76
2022/10/26 02:52:47;;;;;;;16.00;7.50;;;;;;;8.45;100.00;100893.83;101770;1297;70884;-76
2022/10/26 02:55:21;;;;;;;17.70;7.50;;;;;;;8.46;100.00;100894.87;101814;1307;71991;-76
2022/10/26 02:57:53;;;;;;;19.50;8.00;;;;;;;8.50;100.00;100895.55;101874;1307;62958;-76
2022/10/26 03:00:20;;;;;;;19.50;7.80;;;;;;;8.54;100.00;100893.00;101799;1307;61263;-78
2022/10/26 03:02:56;;;;;;;18.70;8.30;;;;;;;8.59;100.00;100888.73;101692;1303;239674;-76
2022/10/26 03:05:29;;;;;;;17.80;7.60;;;;;;;8.65;100.00;100889.87;101559;1309;70749;-76
2022/10/26 03:07:55;;;;;;;19.80;8.60;;;;;;;8.70;100.00;100893.30;101766;1307;70804;-76
2022/10/26 03:10:22;;;;;;;22.00;8.70;;;;;;;8.76;100.00;100887.48;101692;1309;61412;-77
2022/10/26 03:12:48;;;;;;;22.00;8.90;;;;;;;8.83;100.00;100886.09;101818;1307;61350;-76
2022/10/26 03:15:15;;;;;;;22.80;8.80;;;;;;;8.88;100.00;100887.24;101684;1301;73097;-76
2022/10/26 03:17:42;;;;;;;18.50;8.40;;;;;;;8.93;100.00;100885.80;101742;1300;61344;-76
2022/10/26 03:20:09;;;;;;;21.50;8.60;;;;;;;8.98;100.00;100886.55;101693;1302;73043;-76
2022/10/26 03:22:36;;;;;;;15.30;8.10;;;;;;;9.03;100.00;100891.57;101733;1305;62686;-76
2022/10/26 03:25:03;;;;;;;21.10;8.40;;;;;;;9.07;100.00;100889.33;101702;1308;61799;-76
2022/10/26 03:27:30;;;;;;;18.10;7.90;;;;;;;9.10;100.00;100890.27;101910;1305;75810;-76
2022/10/26 03:29:56;;;;;;;20.10;8.50;;;;;;;9.13;100.00;100890.02;101760;1306;71671;-76
2022/10/26 03:32:23;;;;;;;17.90;7.80;;;;;;;9.14;100.00;100884.98;101741;1305;62854;-76
2022/10/26 03:34:49;;;;;;;16.70;7.70;;;;;;;9.14;100.00;100884.06;101873;1306;61732;-77
2022/10/26 03:37:16;;;;;;;20.10;7.90;;;;;;;9.13;100.00;100881.55;101785;1309;62796;-76
2022/10/26 03:39:42;;;;;;;19.40;7.60;;;;;;;9.13;100.00;100875.73;101757;1303;61357;-76
2022/10/26 03:42:09;;;;;;;20.20;7.30;;;;;;;9.11;100.00;100876.61;101895;1307;61450;-76
2022/10/26 03:44:35;;;;;;;17.50;8.00;;;;;;;9.09;100.00;100867.98;101704;1298;61376;-76
2022/10/26 03:47:01;;;;;;;16.70;8.10;;;;;;;9.08;100.00;100863.16;101787;1300;61333;-76
2022/10/26 03:49:28;;;;;;;15.80;7.90;;;;;;;9.07;100.00;100863.98;101890;1306;61442;-76
2022/10/26 03:51:54;;;;;;;16.40;7.60;;;;;;;9.04;100.00;100865.84;101798;1301;62830;-76
2022/10/26 03:54:21;;;;;;;15.40;7.70;;;;;;;9.02;100.00;100868.17;101702;1308;61393;-76
2022/10/26 03:56:48;;;;;;;14.00;7.30;;;;;;;8.99;100.00;100866.41;101837;1307;61939;-76
2022/10/26 03:59:20;;;;;;;15.30;7.30;;;;;;;8.95;100.00;100866.56;101803;1300;61318;-76
2022/10/26 04:01:46;;;;;;;15.40;7.20;;;;;;;8.93;100.00;100868.21;101639;1310;61225;-76
2022/10/26 04:04:13;;;;;;;14.40;7.40;;;;;;;8.91;100.00;100866.34;101847;1307;73344;-75
2022/10/26 04:06:40;;;;;;;13.10;6.70;;;;;;;8.89;100.00;100865.29;101738;1307;61335;-76
2022/10/26 04:09:07;;;;;;;14.00;7.10;;;;;;;8.88;100.00;100865.09;101744;1290;70513;-76
2022/10/26 04:11:33;;;;;;;15.90;6.50;;;;;;;8.86;100.00;100861.90;101893;1309;61432;-76
2022/10/26 04:14:00;;;;;;;13.90;6.90;;;;;;;8.85;100.00;100862.55;101778;1306;61320;-76
2022/10/26 04:16:26;;;;;;;15.10;6.80;;;;;;;8.83;100.00;100857.86;101711;1300;61363;-76
2022/10/26 04:18:58;;;;;;;10.40;6.50;;;;;;;8.80;100.00;100856.69;101882;1305;70590;-77
2022/10/26 04:21:25;;;;;;;11.60;6.30;;;;;;;8.78;100.00;100853.44;101647;1306;70341;-76
2022/10/26 04:23:51;;;;;;;16.10;6.80;;;;;;;8.76;100.00;100851.52;101686;1305;61286;-77
2022/10/26 04:26:18;;;;;;;13.50;6.50;;;;;;;8.73;100.00;100849.83;101866;1300;61950;-77
2022/10/26 04:28:44;;;;;;;14.20;6.70;;;;;;;8.72;100.00;100853.51;101755;1299;61305;-76
2022/10/26 04:31:11;;;;;;;16.80;6.60;;;;;;;8.70;100.00;100852.12;101916;1304;61424;-77
2022/10/26 04:33:37;;;;;;;15.60;6.50;;;;;;;8.68;100.00;100856.33;101886;1307;60016;-75
2022/10/26 04:36:04;;;;;;;12.50;6.50;;;;;;;8.66;100.00;100860.83;101863;1303;61536;-77
2022/10/26 04:38:30;;;;;;;13.30;6.40;;;;;;;8.64;100.00;100855.88;102065;1306;61328;-77
2022/10/26 04:40:57;;;;;;;12.90;6.10;;;;;;;8.63;100.00;100856.20;101821;1300;61319;-78
2022/10/26 04:43:23;;;;;;;12.60;6.00;;;;;;;8.62;100.00;100856.55;101712;1301;61475;-77
2022/10/26 04:45:54;;;;;;;15.80;6.40;;;;;;;8.61;100.00;100858.54;101802;1308;61439;-78
2022/10/26 04:48:21;;;;;;;12.60;6.20;;;;;;;8.61;100.00;100858.15;101869;1307;61901;-78
2022/10/26 04:50:47;;;;;;;13.30;6.30;;;;;;;8.63;100.00;100855.45;101719;1298;61837;-77
2022/10/26 04:53:14;;;;;;;12.00;6.80;;;;;;;8.66;100.00;100856.90;101770;1300;61442;-78
2022/10/26 04:55:41;;;;;;;13.70;6.00;;;;;;;8.71;100.00;100861.57;101840;1301;62984;-78
2022/10/26 04:58:07;;;;;;;13.70;6.30;;;;;;;8.72;100.00;100856.25;101680;1299;72164;-77
2022/10/26 05:00:33;;;;;;;15.40;7.10;;;;;;;8.75;100.00;100856.89;101713;1300;61392;-78
2022/10/26 05:03:02;;;;;;;15.70;7.00;;;;;;;8.75;100.00;100858.23;101842;1307;62846;-78
2022/10/26 05:05:30;;;;;;;13.60;6.90;;;;;;;8.78;100.00;100857.46;101756;1306;75119;-77
2022/10/26 05:07:57;;;;;;;15.30;7.00;;;;;;;8.78;100.00;100854.08;101822;1306;70049;-78
2022/10/26 05:10:24;;;;;;;11.80;5.90;;;;;;;8.78;100.00;100853.77;101888;1300;70982;-78
2022/10/26 05:12:55;;;;;;;14.40;6.20;;;;;;;8.77;100.00;100852.44;101730;1305;61771;-78
2022/10/26 05:15:26;;;;;;;14.40;6.30;;;;;;;8.76;100.00;100851.82;101767;1301;61671;-78
2022/10/26 05:18:07;;;;;;;10.90;6.30;;;;;;;8.76;100.00;100851.52;101951;1307;73235;-78
2022/10/26 05:20:40;;;;;;;13.70;6.60;;;;;;;8.75;100.00;100848.73;101786;1301;71840;-78
2022/10/26 05:23:10;;;;;;;12.70;6.40;;;;;;;8.74;100.00;100851.54;101916;1300;61450;-78
2022/10/26 05:25:37;;;;;;;12.00;6.20;;;;;;;8.70;100.00;100853.34;101793;1306;61938;-79
2022/10/26 05:28:07;;;;;;;10.80;5.90;;;;;;;8.65;100.00;100849.09;101798;1305;61322;-77
2022/10/26 05:30:34;;;;;;;10.50;5.80;;;;;;;8.59;100.00;100848.13;101848;1307;73288;-77
2022/10/26 05:33:02;;;;;;;11.00;6.20;;;;;;;8.52;100.00;100851.98;101824;1305;71063;-78
2022/10/26 05:35:30;;;;;;;11.00;5.60;;;;;;;8.46;100.00;100852.08;101816;1307;72832;-77
2022/10/26 05:37:56;;;;;;;10.20;5.70;;;;;;;8.41;100.00;100853.48;101757;1306;61804;-77
2022/10/26 05:40:24;;;;;;;16.30;6.30;;;;;;;8.38;100.00;100853.27;101717;1308;61318;-77
2022/10/26 05:42:50;;;;;;;18.80;6.60;;;;;;;8.34;100.00;100853.09;101730;1305;73405;-77
2022/10/26 05:45:17;;;;;;;14.70;5.90;;;;;;;8.30;100.00;100847.16;101848;1306;68642;-77
2022/10/26 05:47:45;;;;;;;18.90;6.20;;;;;;;8.26;100.00;100846.15;101726;1292;61580;-77
2022/10/26 05:50:12;;;;;;;17.10;6.10;;;;;;;8.22;100.00;100848.21;101781;1307;61320;-77
2022/10/26 05:52:43;;;;;;;15.80;6.30;;;;;;;8.17;100.00;100849.20;101828;1300;61718;-77
2022/10/26 05:55:13;;;;;;;12.80;6.30;;;;;;;8.13;100.00;100848.67;101708;1298;72604;-77
2022/10/26 05:57:41;;;;;;;15.80;6.50;;;;;;;8.11;100.00;100850.86;101838;1307;69652;-78
2022/10/26 06:00:10;;;;;;;15.30;6.00;;;;;;;8.09;100.00;100850.19;101749;1309;72988;-77
2022/10/26 06:02:54;;;;;;;16.00;6.50;;;;;;;8.08;100.00;100849.52;101824;1306;62393;-78
2022/10/26 06:05:25;;;;;;;18.20;7.40;;;;;;;8.09;100.00;100848.73;101913;1300;61377;-77
2022/10/26 06:07:52;;;;;;;13.00;6.40;;;;;;;8.11;100.00;100851.36;101721;1306;73393;-77
2022/10/26 06:10:19;;;;;;;15.70;6.90;;;;;;;8.12;100.00;100855.67;101837;1308;70810;-77
2022/10/26 06:12:46;;;;;;;15.90;6.80;;;;;;;8.14;100.00;100854.39;101753;1306;71275;-77
2022/10/26 06:15:19;;;;;;;13.80;6.20;;;;;;;8.16;100.00;100857.42;101710;1298;61906;-77
2022/10/26 06:18:16;;;;;;;11.20;6.10;;;;;;;8.19;100.00;100857.83;101607;1307;61491;-77
2022/10/26 06:20:50;;;;;;;15.70;6.50;;;;;;;8.20;100.00;100856.64;101956;1307;74660;-77
2022/10/26 06:23:35;;;;;;;17.40;6.30;;;;;;;8.21;100.00;100855.16;102161;1306;70908;-77
2022/10/26 06:26:20;;;;;;;13.90;6.50;;;;;;;8.22;100.00;100861.71;101783;1307;70670;-77
2022/10/26 06:28:56;;;;;;;15.00;5.80;;;;;;;8.25;100.00;100866.77;101726;1300;61404;-77
2022/10/26 06:31:22;;;;;;;15.30;6.20;;;;;;;8.26;100.00;100869.77;101817;1308;62550;-80
2022/10/26 06:33:54;;;;;;;11.90;5.90;;;;;;;8.27;100.00;100868.59;101763;1298;61404;-78
2022/10/26 06:36:22;;;;;;;11.80;6.90;;;;;;;8.29;100.00;100866.09;101803;1309;71047;-79
2022/10/26 06:38:57;;;;;;;14.40;5.90;;;;;;;8.31;100.00;100866.77;101938;1300;73613;-78
2022/10/26 06:41:25;;;;;;;15.20;6.20;;;;;;;8.33;100.00;100864.52;101808;1300;61440;-78
2022/10/26 06:43:52;;;;;;;16.20;6.40;;;;;;;8.33;100.00;100866.73;101912;1300;61691;-78
2022/10/26 06:46:47;;;;;;;14.80;6.00;;;;;;;8.34;100.00;100872.09;101788;1309;74154;-77
2022/10/26 06:49:21;;;;;;;16.90;6.70;;;;;;;8.38;100.00;100877.70;102037;1306;70933;-78
2022/10/26 06:51:57;;;;;;;19.30;7.00;;;;;;;8.42;100.00;100879.64;102026;1307;71175;-78
2022/10/26 06:54:51;;;;;;;14.60;7.10;;;;;;;8.47;100.00;100880.76;101997;1293;61665;-79
2022/10/26 06:57:20;;;;;;;14.80;6.70;;;;;;;8.55;100.00;100882.92;102023;1306;61449;-80
2022/10/26 06:59:52;;;;;;;17.80;6.50;;;;;;;8.64;100.00;100885.17;102010;1307;73405;-77
2022/10/26 07:02:19;;;;;;;17.00;6.40;;;;;;;8.72;100.00;100885.72;102127;1307;70202;-78
2022/10/26 07:04:46;;;;;;;16.10;6.30;;;;;;;8.81;100.00;100886.28;101923;1300;71233;-78
2022/10/26 07:07:17;;;;;;;17.40;6.30;;;;;;;8.87;100.00;100885.59;101909;1299;61172;-79
2022/10/26 07:09:43;;;;;;;16.30;6.10;;;;;;;8.96;100.00;100889.77;101793;1300;61909;-78
2022/10/26 07:12:13;;;;;;;16.00;6.80;;;;;;;9.06;100.00;100894.26;101882;1306;61316;-80
2022/10/26 07:14:39;;;;;;;13.90;6.70;;;;;;;9.17;100.00;100893.59;101865;1307;71203;-79
2022/10/26 07:17:08;;;;;;;12.20;6.20;;;;;;;9.29;100.00;100890.64;101670;1308;72460;-78
2022/10/26 07:19:34;;;;;;;12.90;7.10;;;;;;;9.37;100.00;100889.73;101774;1305;61203;-78
2022/10/26 07:22:01;;;;;;;13.30;6.20;;;;;;;9.46;100.00;100890.92;101719;1306;61379;-78
2022/10/26 07:24:28;;;;;;;13.70;6.40;;;;;;;9.56;100.00;100892.16;101750;1307;74545;-78
2022/10/26 07:26:56;;;;;;;12.50;6.40;;;;;;;9.67;100.00;100895.39;101809;1307;70853;-78
2022/10/26 07:29:25;;;;;;;14.20;5.90;;;;;;;9.80;100.00;100901.11;101794;1306;71129;-78
2022/10/26 07:31:52;;;;;;;11.80;5.70;;;;;;;9.95;100.00;100900.66;101720;1300;61907;-78
2022/10/26 07:34:19;;;;;;;12.90;6.20;;;;;;;10.12;100.00;100897.80;101864;1303;61316;-79
2022/10/26 07:36:46;;;;;;;10.90;5.60;;;;;;;10.30;100.00;100897.52;101697;1300;61263;-79
2022/10/26 07:39:12;;;;;;;10.80;5.80;;;;;;;10.45;100.00;100902.87;101522;1298;61796;-77
2022/10/26 07:41:39;;;;;;;9.90;5.90;;;;;;;10.61;100.00;100902.77;101813;1303;61698;-77
2022/10/26 07:44:05;;;;;;;10.30;5.50;;;;;;;10.73;100.00;100902.24;101735;1306;61433;-77
2022/10/26 07:46:32;;;;;;;11.10;5.50;;;;;;;10.87;100.00;100900.70;101796;1301;61205;-78
2022/10/26 07:48:58;;;;;;;11.10;5.70;;;;;;;11.01;100.00;100900.23;101847;1299;61407;-77
2022/10/26 07:51:25;;;;;;;8.30;5.00;;;;;;;11.15;100.00;100902.20;101707;1306;61372;-77
2022/10/26 07:53:51;;;;;;;10.40;5.60;;;;;;;11.28;100.00;100904.05;101723;1301;61484;-78
2022/10/26 07:56:18;;;;;;;7.70;4.70;;;;;;;11.41;100.00;100903.29;101679;1294;61377;-77
2022/10/26 07:58:44;;;;;;;9.90;4.30;;;;;;;11.54;100.00;100905.69;101875;1307;61507;-78
2022/10/26 08:01:13;;;;;;;7.70;4.30;;;;;;;11.66;100.00;100909.47;101747;1301;61358;-77
2022/10/26 08:03:41;;;;;;;10.20;4.20;;;;;;;11.79;100.00;100910.77;101828;1308;69857;-77
2022/10/26 08:06:09;;;;;;;7.60;3.30;;;;;;;11.92;100.00;100913.23;101930;1308;70482;-77
2022/10/26 08:08:36;;;;;;;6.60;3.70;;;;;;;12.05;100.00;100911.96;101809;1301;61902;-77
2022/10/26 08:11:04;;;;;;;6.80;3.10;;;;;;;12.17;100.00;100911.67;101758;1300;61405;-78
2022/10/26 08:13:31;;;;;;;9.80;3.20;;;;;;;12.28;100.00;100912.19;102005;1307;74778;-78
2022/10/26 08:15:59;;;;;;;9.00;3.20;;;;;;;12.39;100.00;100910.60;101676;1305;70035;-79
2022/10/26 08:18:26;;;;;;;5.50;3.40;;;;;;;12.49;99.95;100908.66;102016;1307;71244;-78
2022/10/26 08:20:53;;;;;;;8.20;3.10;;;;;;;12.60;99.90;100909.46;101700;1307;61326;-78
2022/10/26 08:23:35;;;;;;;9.50;3.20;;;;;;;12.74;99.80;100913.67;101787;1300;61349;-78
2022/10/26 08:26:02;;;;;;;7.60;3.30;;;;;;;12.86;99.20;100916.33;101784;1302;61305;-76
2022/10/26 08:28:29;;;;;;;8.50;3.70;;;;;;;12.93;98.42;100911.96;101662;1307;69780;-77
2022/10/26 08:30:56;;;;;;;5.80;3.40;;;;;;;12.99;98.07;100917.81;101724;1307;72284;-77
2022/10/26 08:33:23;;;;;;;5.90;3.00;;;;;;;13.03;97.48;100921.39;101914;1306;61421;-76
2022/10/26 08:36:04;;;;;;;7.10;2.80;;;;;;;13.06;97.12;100920.62;101772;1307;61393;-77
2022/10/26 08:38:32;;;;;;;7.10;2.70;;;;;;;13.12;97.01;100922.35;101918;1298;74254;-77
2022/10/26 08:41:07;;;;;;;5.70;2.40;;;;;;;13.17;96.78;100923.45;101726;1300;70066;-77
2022/10/26 08:43:41;;;;;;;6.80;2.60;;;;;;;13.21;95.96;100923.65;101778;1307;72564;-78
2022/10/26 08:46:15;;;;;;;4.70;2.50;;;;;;;13.24;95.15;100919.67;101679;1306;61503;-77
2022/10/26 08:48:54;;;;;;;4.70;2.30;;;;;;;13.30;94.98;100916.52;101771;1303;62007;-77
2022/10/26 08:51:26;;;;;;;6.40;2.50;;;;;;;13.36;94.62;100914.98;101842;1307;73102;-78
2022/10/26 08:54:04;;;;;;;6.30;2.30;;;;;;;13.44;94.28;100911.09;101820;1301;70809;-78
2022/10/26 08:56:45;;;;;;;5.80;2.20;;;;;;;13.53;93.57;100899.53;101881;1304;70860;-78
2022/10/26 08:59:29;;;;;;;5.20;2.10;;;;;;;13.59;92.97;100892.61;101739;1300;61349;-77
2022/10/26 09:01:55;;;;;;;4.20;2.30;;;;;;;13.67;92.91;100894.63;101423;1309;61343;-77
2022/10/26 09:04:27;;;;;;;5.00;2.00;;;;;;;13.71;92.11;100898.56;101719;1307;61459;-78
2022/10/26 09:07:27;;;;;;;6.40;2.40;;;;;;;13.79;92.46;100900.52;101853;1307;69818;-77
2022/10/26 09:10:07;;;;;;;5.00;2.10;;;;;;;13.90;92.25;100897.14;101785;1300;72320;-77
2022/10/26 09:12:57;;;;;;;5.00;2.10;;;;;;;14.00;91.97;100896.23;101831;1305;61707;-77
2022/10/26 09:15:29;;;;;;;6.80;2.50;;;;;;;14.09;91.27;100888.31;101874;1307;61292;-77
2022/10/26 09:18:10;;;;;;;6.30;2.30;;;;;;;14.18;91.07;100891.23;101679;1305;73610;-76
2022/10/26 09:21:07;;;;;;;6.10;2.10;;;;;;;14.27;90.34;100889.75;101760;1292;70540;-77
2022/10/26 09:23:52;;;;;;;4.40;2.30;;;;;;;14.31;89.33;100890.31;101843;1304;70224;-76
2022/10/26 09:26:30;;;;;;;7.00;2.40;;;;;;;14.35;89.40;100897.45;101725;1307;61465;-78
2022/10/26 09:29:01;;;;;;;5.40;2.40;;;;;;;14.41;89.81;100894.82;101758;1305;61282;-77
2022/10/26 09:31:31;;;;;;;3.80;2.00;;;;;;;14.51;90.16;100897.73;101666;1306;74779;-76
2022/10/26 09:34:01;;;;;;;5.30;2.10;;;;;;;14.63;89.90;100898.52;101797;1307;70942;-76
2022/10/26 09:36:27;;;;;;;6.60;2.00;;;;;;;14.78;89.81;100901.88;101879;1308;73433;-78
2022/10/26 09:39:09;;;;;;;6.10;1.90;;;;;;;14.95;89.60;100902.83;101819;1306;61443;-77
2022/10/26 09:41:46;;;;;;;5.10;1.90;;;;;;;15.07;87.94;100906.37;101751;1300;61966;-77
2022/10/26 09:44:25;;;;;;;4.90;1.80;;;;;;;15.16;87.35;100902.75;101755;1307;74169;-77
2022/10/26 09:47:20;;;;;;;5.10;1.80;;;;;;;15.32;86.94;100903.88;101924;1305;71246;-76
2022/10/26 09:49:53;;;;;;;5.40;1.60;;;;;;;15.51;85.56;100909.48;101850;1307;73725;-76
2022/10/26 09:52:20;;;;;;;3.80;1.70;;;;;;;15.62;85.03;100911.02;101763;1300;61325;-76
2022/10/26 09:54:47;;;;;;;4.00;1.60;;;;;;;15.71;84.50;100911.52;101750;1307;61354;-76
2022/10/26 09:57:17;;;;;;;6.00;1.80;;;;;;;15.83;85.04;100912.36;101783;1306;61781;-76
2022/10/26 09:59:46;;;;;;;4.90;1.80;;;;;;;16.00;85.28;100913.64;101649;1306;69732;-76
2022/10/26 10:02:45;;;;;;;4.00;1.70;;;;;;;16.21;84.79;100912.58;101726;1307;71683;-77
2022/10/26 10:05:29;;;;;;;5.70;1.70;;;;;;;16.43;83.15;100913.39;101755;1291;61424;-76
2022/10/26 10:08:25;;;;;;;4.10;1.40;;;;;;;16.65;81.21;100913.01;101696;1307;63109;-76
2022/10/26 10:11:10;;;;;;;5.00;1.60;;;;;;;16.81;80.44;100912.81;101789;1306;74610;-75
2022/10/26 10:13:39;;;;;;;5.70;1.80;;;;;;;16.99;79.74;100911.14;101725;1307;69600;-76
2022/10/26 10:16:11;;;;;;;3.70;1.40;;;;;;;17.12;79.70;100905.21;101707;1306;70339;-76
2022/10/26 10:18:40;;;;;;;4.40;1.80;;;;;;;17.29;78.83;100908.85;101716;1307;61667;-76
2022/10/26 10:21:09;;;;;;;4.80;1.40;;;;;;;17.43;78.79;100909.57;101740;1307;62778;-76
2022/10/26 10:23:47;;;;;;;3.40;1.30;;;;;;;17.55;78.24;100909.32;101834;1307;75587;-77
2022/10/26 10:26:14;;;;;;;4.80;1.20;;;;;;;17.56;76.45;100909.11;101787;1300;70060;-73
2022/10/26 10:28:43;;;;;;;3.10;1.20;;;;;;;17.57;76.25;100911.48;101765;1298;61459;-73
2022/10/26 10:31:22;;;;;;;4.60;1.40;;;;;;;17.58;76.49;100912.81;101904;1307;61355;-73
2022/10/26 10:33:48;;;;;;;4.30;1.40;;;;;;;17.65;76.90;100918.75;101828;1307;62513;-73
2022/10/26 10:36:18;;;;;;;4.60;1.40;;;;;;;17.67;76.90;100915.31;101816;1300;61939;-73
2022/10/26 10:38:47;;;;;;;3.50;1.20;;;;;;;17.71;76.78;100916.73;101792;1307;69875;-73
2022/10/26 10:41:29;;;;;;;3.60;1.40;;;;;;;17.77;76.69;100920.28;101814;1301;71643;-73
2022/10/26 10:44:07;;;;;;;5.30;1.30;;;;;;;17.86;75.53;100914.17;101726;1307;61382;-73
2022/10/26 10:46:36;;;;;;;3.10;1.30;;;;;;;17.94;75.42;100909.89;101751;1305;61238;-74
2022/10/26 10:49:05;;;;;;;3.70;1.30;;;;;;;18.02;75.36;100909.68;101759;1307;73658;-73
2022/10/26 10:51:38;;;;;;;2.90;1.20;;;;;;;18.12;75.15;100914.35;101788;1305;70089;-74
2022/10/26 10:54:20;;;;;;;3.90;1.30;;;;;;;18.22;74.68;100911.82;101815;1301;72456;-72
2022/10/26 10:56:51;;;;;;;4.60;1.30;;;;;;;18.32;73.53;100918.65;101722;1308;61340;-73
2022/10/26 10:59:36;;;;;;;4.90;1.50;;;;;;;18.34;72.78;100918.01;101792;1306;61252;-73
2022/10/26 11:02:39;;;;;;;7.30;1.40;;;;;;;18.41;73.69;100919.02;101749;1307;73837;-73
2022/10/26 11:05:41;;;;;;;3.80;1.30;;;;;;;18.47;73.64;100921.31;101566;1304;72191;-74
2022/10/26 11:08:14;;;;;;;4.40;1.50;;;;;;;18.44;72.93;100924.19;101662;1299;71520;-72
2022/10/26 11:10:51;;;;;;;4.70;1.30;;;;;;;18.37;71.87;100925.45;101675;1305;61422;-72
2022/10/26 11:13:30;;;;;;;2.50;1.00;;;;;;;18.29;72.74;100929.95;101796;1300;62243;-73
2022/10/26 11:16:02;;;;;;;4.40;1.30;;;;;;;18.21;72.62;100930.05;101817;1305;73500;-73
2022/10/26 11:18:38;;;;;;;4.30;1.50;;;;;;;18.13;72.76;100930.77;101823;1299;70908;-72
2022/10/26 11:21:36;;;;;;;5.30;1.20;;;;;;;18.09;72.32;100929.98;101741;1299;72423;-74
2022/10/26 11:24:10;;;;;;;5.60;1.30;;;;;;;18.11;73.13;100928.92;101715;1298;62807;-73
2022/10/26 11:26:54;;;;;;;3.80;1.30;;;;;;;18.18;73.43;100927.92;101886;1307;61339;-73
2022/10/26 11:29:50;;;;;;;2.90;1.20;;;;;;;18.24;72.67;100921.67;101776;1305;73127;-74
2022/10/26 11:32:24;;;;;;;3.90;1.20;;;;;;;18.36;72.82;100925.05;101674;1306;71102;-74
2022/10/26 11:35:03;;;;;;;4.10;1.10;;;;;;;18.46;72.18;100925.38;101749;1306;71188;-75